Time;durP1;ratioP1;P1;durP2;ratioP2;P2;SDS_P1;SDS_P2;PMS_P1;PMS_P2;Temp;Humidity;BMP_temperature;BMP_pressure;BME280_temperature;BME280_humidity;BME280_pressure;Samples;Min_cycle;Max_cycle;Signal;HPM_P1;HPM_P2
2022/01/12 00:01:16;;;;;;;160.55;33.85;;;;;;;;;;4954137;28;20197;-76
2022/01/12 00:03:44;;;;;;;167.27;34.50;;;;;;;;;;4947919;28;20081;-77
2022/01/12 00:06:12;;;;;;;142.05;32.53;;;;;;;;;;4942429;29;20059;-76
2022/01/12 00:08:40;;;;;;;147.80;34.55;;;;;;;;;;4947649;29;20063;-76
2022/01/12 00:11:07;;;;;;;157.15;34.88;;;;;;;;;;4946578;28;20836;-77
2022/01/12 00:13:34;;;;;;;137.32;35.05;;;;;;;;;;4946382;28;20492;-76
2022/01/12 00:16:02;;;;;;;140.57;32.08;;;;;;;;;;4946021;28;20098;-77
2022/01/12 00:18:30;;;;;;;149.52;31.73;;;;;;;;;;4944955;29;20158;-76
2022/01/12 00:20:57;;;;;;;142.95;33.50;;;;;;;;;;4947880;29;20138;-77
2022/01/12 00:23:25;;;;;;;154.20;32.15;;;;;;;;;;4931953;28;20515;-76
2022/01/12 00:26:07;;;;;;;172.02;34.55;;;;;;;;;;4958551;28;20157;-77
2022/01/12 00:34:08;;;;;;;125.60;30.15;;;;;;;;;;4937124;29;20134;-76
2022/01/12 00:36:36;;;;;;;144.32;34.65;;;;;;;;;;4944233;28;20087;-76
2022/01/12 00:39:05;;;;;;;139.30;31.98;;;;;;;;;;4928424;29;20107;-76
2022/01/12 00:41:32;;;;;;;132.13;30.92;;;;;;;;;;4920127;29;20058;-76
2022/01/12 00:44:00;;;;;;;160.52;33.70;;;;;;;;;;4947200;29;20134;-77
2022/01/12 00:46:29;;;;;;;151.52;32.47;;;;;;;;;;4944442;28;20051;-77
2022/01/12 00:48:57;;;;;;;147.43;32.25;;;;;;;;;;4911373;29;20421;-77
2022/01/12 00:51:30;;;;;;;134.13;31.83;;;;;;;;;;4921001;29;20067;-77
2022/01/12 00:53:58;;;;;;;149.45;31.58;;;;;;;;;;4929960;28;20055;-76
2022/01/12 00:56:26;;;;;;;147.48;33.17;;;;;;;;;;4952621;28;20093;-77
2022/01/12 00:58:53;;;;;;;145.98;34.50;;;;;;;;;;4947166;29;20083;-77
2022/01/12 01:01:21;;;;;;;128.55;31.45;;;;;;;;;;4949177;28;20047;-77
2022/01/12 01:03:48;;;;;;;129.35;32.47;;;;;;;;;;4946451;29;20142;-77
2022/01/12 01:06:16;;;;;;;139.27;31.13;;;;;;;;;;4945636;28;20127;-76
2022/01/12 01:08:48;;;;;;;130.57;31.48;;;;;;;;;;4955002;28;20146;-77
2022/01/12 01:11:15;;;;;;;148.93;29.77;;;;;;;;;;4946908;29;20075;-76
2022/01/12 01:13:57;;;;;;;131.35;33.33;;;;;;;;;;4927788;29;20086;-76
2022/01/12 01:16:46;;;;;;;138.65;31.35;;;;;;;;;;4935674;29;20090;-76
2022/01/12 01:27:32;;;;;;;137.05;33.22;;;;;;;;;;4949022;28;20930;-76
2022/01/12 01:29:59;;;;;;;131.23;32.78;;;;;;;;;;4946612;29;20137;-77
2022/01/12 01:32:27;;;;;;;138.25;32.05;;;;;;;;;;4945650;29;20150;-77
2022/01/12 01:34:54;;;;;;;154.27;32.15;;;;;;;;;;4945734;28;20063;-76
2022/01/12 01:37:22;;;;;;;158.32;32.92;;;;;;;;;;4928751;29;20075;-76
2022/01/12 01:39:49;;;;;;;144.48;32.22;;;;;;;;;;4946705;29;20672;-76
2022/01/12 01:42:21;;;;;;;156.50;32.05;;;;;;;;;;4929387;29;20053;-77
2022/01/12 01:55:44;;;;;;;140.23;30.92;;;;;;;;;;4954395;28;20149;-75
2022/01/12 01:58:11;;;;;;;141.88;31.45;;;;;;;;;;4945385;29;20843;-76
2022/01/12 02:00:38;;;;;;;145.13;30.40;;;;;;;;;;4947132;28;20053;-77
2022/01/12 02:03:05;;;;;;;125.72;30.67;;;;;;;;;;4945504;29;20484;-76
2022/01/12 02:05:33;;;;;;;151.82;31.90;;;;;;;;;;4946795;29;20051;-76
2022/01/12 02:08:01;;;;;;;128.07;30.70;;;;;;;;;;4946676;28;20440;-76
2022/01/12 02:10:28;;;;;;;126.50;28.88;;;;;;;;;;4954952;28;20126;-76
2022/01/12 02:12:55;;;;;;;139.80;30.77;;;;;;;;;;4942433;28;20130;-76
2022/01/12 02:15:25;;;;;;;132.55;32.03;;;;;;;;;;4945332;29;20142;-76
2022/01/12 02:18:19;;;;;;;121.07;30.52;;;;;;;;;;4941034;29;20456;-76
2022/01/12 02:40:36;;;;;;;135.48;31.15;;;;;;;;;;4897106;29;20143;-77
2022/01/12 02:51:34;;;;;;;147.52;32.97;;;;;;;;;;4950402;29;20134;-77
2022/01/12 02:54:03;;;;;;;155.52;31.00;;;;;;;;;;4938325;28;20046;-77
2022/01/12 02:56:32;;;;;;;142.85;32.67;;;;;;;;;;4957994;28;20147;-77
2022/01/12 02:58:59;;;;;;;151.50;32.63;;;;;;;;;;4930769;29;20108;-77
2022/01/12 03:04:03;;;;;;;154.30;33.95;;;;;;;;;;4949403;29;20087;-77
2022/01/12 03:06:35;;;;;;;148.70;32.15;;;;;;;;;;4935048;29;20162;-77
2022/01/12 03:09:03;;;;;;;134.02;30.58;;;;;;;;;;4920859;29;20150;-77
2022/01/12 03:11:31;;;;;;;136.25;30.75;;;;;;;;;;4947782;28;20058;-77
2022/01/12 03:13:59;;;;;;;138.82;31.60;;;;;;;;;;4949388;28;20143;-77
2022/01/12 03:16:26;;;;;;;136.93;31.13;;;;;;;;;;4935846;28;20137;-78
2022/01/12 03:18:55;;;;;;;140.57;33.92;;;;;;;;;;4936013;29;20143;-78
2022/01/12 03:21:23;;;;;;;144.45;33.33;;;;;;;;;;4949671;29;20051;-77
2022/01/12 03:23:51;;;;;;;148.02;33.28;;;;;;;;;;4953053;28;20049;-77
2022/01/12 03:26:19;;;;;;;134.02;30.42;;;;;;;;;;4959475;28;20138;-77
2022/01/12 03:28:53;;;;;;;136.15;32.47;;;;;;;;;;4947995;29;20244;-77
2022/01/12 03:31:23;;;;;;;137.27;31.05;;;;;;;;;;4954014;28;20130;-77
2022/01/12 03:33:56;;;;;;;139.68;34.38;;;;;;;;;;4948854;29;20445;-77
2022/01/12 03:38:55;;;;;;;134.07;31.63;;;;;;;;;;4949488;29;20047;-77
2022/01/12 03:41:23;;;;;;;139.15;30.80;;;;;;;;;;4949364;29;20137;-77
2022/01/12 03:43:52;;;;;;;135.13;32.53;;;;;;;;;;4947579;29;20137;-77
2022/01/12 03:46:21;;;;;;;130.65;32.75;;;;;;;;;;4943051;29;20054;-77
2022/01/12 03:48:48;;;;;;;127.90;31.52;;;;;;;;;;4947639;29;20059;-78
2022/01/12 03:51:16;;;;;;;120.35;30.48;;;;;;;;;;4948852;28;20496;-78
2022/01/12 03:53:43;;;;;;;128.10;32.00;;;;;;;;;;4950595;28;20161;-78
2022/01/12 03:56:10;;;;;;;127.05;30.45;;;;;;;;;;4944772;28;20138;-78
2022/01/12 03:58:37;;;;;;;142.90;34.42;;;;;;;;;;4948921;28;20093;-79
2022/01/12 04:01:04;;;;;;;146.55;34.22;;;;;;;;;;4958385;28;20697;-79
2022/01/12 04:03:38;;;;;;;142.63;32.60;;;;;;;;;;4952360;28;20043;-80
2022/01/12 04:08:51;;;;;;;140.05;32.67;;;;;;;;;;4950726;28;20138;-80
2022/01/12 04:11:19;;;;;;;149.13;34.72;;;;;;;;;;4950491;28;20110;-77
2022/01/12 04:13:48;;;;;;;124.30;31.58;;;;;;;;;;4947419;28;20051;-78
2022/01/12 04:16:16;;;;;;;145.48;31.67;;;;;;;;;;4948059;28;20086;-78
2022/01/12 04:18:43;;;;;;;155.15;33.85;;;;;;;;;;4950289;29;20497;-78
2022/01/12 04:21:12;;;;;;;160.60;35.10;;;;;;;;;;4932864;29;20102;-78
2022/01/12 04:23:40;;;;;;;153.80;34.53;;;;;;;;;;4950620;28;20493;-79
2022/01/12 04:26:10;;;;;;;147.23;34.85;;;;;;;;;;4954787;28;20739;-78
2022/01/12 04:28:47;;;;;;;145.55;33.60;;;;;;;;;;4948441;29;20059;-78
2022/01/12 04:31:14;;;;;;;139.40;34.70;;;;;;;;;;4949601;29;20741;-78
2022/01/12 04:33:43;;;;;;;168.52;36.35;;;;;;;;;;4947939;29;20397;-78
2022/01/12 04:36:12;;;;;;;155.10;34.22;;;;;;;;;;4949664;28;20377;-78
2022/01/12 04:38:40;;;;;;;162.38;35.28;;;;;;;;;;4957385;28;20142;-83
2022/01/12 04:41:08;;;;;;;146.88;33.78;;;;;;;;;;4968194;28;20146;-84
2022/01/12 04:43:36;;;;;;;157.68;34.58;;;;;;;;;;4953130;29;20138;-85
2022/01/12 04:48:48;;;;;;;148.27;32.35;;;;;;;;;;4953560;28;20057;-84
2022/01/12 04:51:15;;;;;;;153.05;34.50;;;;;;;;;;4953359;29;20146;-83
2022/01/12 04:53:42;;;;;;;165.70;34.50;;;;;;;;;;4938516;28;20173;-84
2022/01/12 04:56:09;;;;;;;148.27;34.22;;;;;;;;;;4964441;28;20056;-84
2022/01/12 04:58:36;;;;;;;154.63;34.55;;;;;;;;;;4955430;28;20134;-84
2022/01/12 05:01:21;;;;;;;141.40;32.97;;;;;;;;;;4961222;28;20074;-83
2022/01/12 05:06:49;;;;;;;158.93;34.90;;;;;;;;;;4944739;29;20107;-83
2022/01/12 05:15:01;;;;;;;144.80;34.47;;;;;;;;;;4934177;29;20144;-83
2022/01/12 05:17:47;;;;;;;141.43;34.28;;;;;;;;;;4942136;29;20480;-84
2022/01/12 05:20:14;;;;;;;150.57;32.08;;;;;;;;;;4935657;29;20137;-84
2022/01/12 05:22:41;;;;;;;133.40;32.17;;;;;;;;;;4952850;29;20768;-83
2022/01/12 05:25:09;;;;;;;157.02;35.13;;;;;;;;;;4935386;29;20147;-84
2022/01/12 05:27:36;;;;;;;133.07;31.30;;;;;;;;;;4949685;28;20134;-84
2022/01/12 05:30:03;;;;;;;150.40;35.22;;;;;;;;;;4954014;28;20078;-84
2022/01/12 05:32:31;;;;;;;142.55;31.73;;;;;;;;;;4958141;28;20082;-84
2022/01/12 05:35:02;;;;;;;157.15;33.90;;;;;;;;;;4949808;29;20468;-84
2022/01/12 05:37:30;;;;;;;156.18;34.72;;;;;;;;;;4961491;28;20061;-84
2022/01/12 05:40:00;;;;;;;147.93;33.67;;;;;;;;;;4972449;28;20090;-84
2022/01/12 05:42:35;;;;;;;137.05;32.53;;;;;;;;;;4966148;28;20485;-85
2022/01/12 05:45:03;;;;;;;139.05;33.83;;;;;;;;;;4961024;28;20134;-85
2022/01/12 05:50:04;;;;;;;125.63;32.95;;;;;;;;;;4952609;29;20134;-86
2022/01/12 05:52:31;;;;;;;140.23;33.45;;;;;;;;;;4948144;29;20572;-85
2022/01/12 05:54:59;;;;;;;158.68;34.97;;;;;;;;;;4962490;28;20140;-85
2022/01/12 05:57:26;;;;;;;152.23;32.80;;;;;;;;;;4972104;28;20062;-86
2022/01/12 05:59:54;;;;;;;154.57;35.17;;;;;;;;;;4972602;28;20158;-85
2022/01/12 06:02:21;;;;;;;164.93;34.88;;;;;;;;;;4955483;28;20067;-85
2022/01/12 06:04:48;;;;;;;139.52;33.83;;;;;;;;;;4939277;29;20051;-84
2022/01/12 06:07:17;;;;;;;158.02;36.92;;;;;;;;;;4937314;29;20800;-85
2022/01/12 06:09:44;;;;;;;149.50;34.30;;;;;;;;;;4935839;29;20138;-83
2022/01/12 06:12:16;;;;;;;153.23;32.53;;;;;;;;;;4949550;28;20533;-84
2022/01/12 06:14:43;;;;;;;146.50;34.25;;;;;;;;;;4956152;28;20059;-84
2022/01/12 06:17:11;;;;;;;150.85;35.83;;;;;;;;;;4951877;28;20061;-83
2022/01/12 06:19:38;;;;;;;166.20;36.38;;;;;;;;;;4938799;29;20133;-83
2022/01/12 06:22:06;;;;;;;161.77;35.75;;;;;;;;;;4949063;28;20055;-83
2022/01/12 06:24:33;;;;;;;148.85;33.55;;;;;;;;;;4950193;28;20468;-87
2022/01/12 06:27:01;;;;;;;152.23;36.88;;;;;;;;;;4947928;29;20057;-83
2022/01/12 06:32:30;;;;;;;152.55;34.58;;;;;;;;;;4939222;28;20093;-84
2022/01/12 06:34:57;;;;;;;160.90;36.70;;;;;;;;;;4952098;29;20169;-82
2022/01/12 06:37:24;;;;;;;172.70;37.78;;;;;;;;;;4962564;28;20055;-84
2022/01/12 06:39:52;;;;;;;151.80;34.60;;;;;;;;;;4971678;28;20143;-82
2022/01/12 06:45:35;;;;;;;166.77;37.47;;;;;;;;;;4967495;28;20412;-77
2022/01/12 06:48:02;;;;;;;176.00;36.28;;;;;;;;;;4952013;28;20078;-77
2022/01/12 06:50:29;;;;;;;171.50;37.08;;;;;;;;;;4952342;28;20113;-77
2022/01/12 06:52:56;;;;;;;169.25;39.67;;;;;;;;;;4952547;28;20142;-77
2022/01/12 06:55:24;;;;;;;165.82;36.60;;;;;;;;;;4977400;28;20059;-77
2022/01/12 06:57:51;;;;;;;162.77;36.40;;;;;;;;;;4987334;23;20500;-84
2022/01/12 07:00:18;;;;;;;174.38;37.75;;;;;;;;;;4983660;28;20073;-84
2022/01/12 07:02:57;;;;;;;177.18;36.25;;;;;;;;;;5004413;28;20141;-84
2022/01/12 07:05:24;;;;;;;178.90;37.88;;;;;;;;;;4980426;28;20059;-84
2022/01/12 07:07:52;;;;;;;182.60;37.53;;;;;;;;;;4997171;28;20052;-84
2022/01/12 07:10:19;;;;;;;182.30;37.97;;;;;;;;;;5006172;28;20137;-84
2022/01/12 07:12:46;;;;;;;181.05;39.58;;;;;;;;;;4991799;28;20097;-84
2022/01/12 07:15:13;;;;;;;166.85;37.67;;;;;;;;;;4992906;28;20050;-84
2022/01/12 07:17:40;;;;;;;169.45;38.05;;;;;;;;;;4992166;28;20113;-84
2022/01/12 07:20:09;;;;;;;179.07;38.53;;;;;;;;;;4979235;28;20145;-84
2022/01/12 07:22:36;;;;;;;217.65;42.20;;;;;;;;;;4975990;28;20085;-84
2022/01/12 07:25:03;;;;;;;186.25;39.03;;;;;;;;;;5000703;28;20527;-84
2022/01/12 07:27:30;;;;;;;213.60;39.25;;;;;;;;;;5000791;28;20304;-84
2022/01/12 07:29:58;;;;;;;174.35;36.80;;;;;;;;;;4992657;28;20085;-84
2022/01/12 07:32:25;;;;;;;182.32;37.42;;;;;;;;;;4992773;28;20150;-84
2022/01/12 07:34:52;;;;;;;178.95;36.97;;;;;;;;;;4992744;28;20590;-84
2022/01/12 07:37:19;;;;;;;203.18;37.15;;;;;;;;;;4990043;28;20052;-84
2022/01/12 07:39:46;;;;;;;213.20;38.80;;;;;;;;;;5010988;28;20554;-84
2022/01/12 07:42:13;;;;;;;175.05;36.55;;;;;;;;;;5006130;28;20073;-85
2022/01/12 07:44:43;;;;;;;192.57;37.97;;;;;;;;;;4992452;28;20074;-84
2022/01/12 07:47:10;;;;;;;204.48;37.85;;;;;;;;;;4975614;28;20125;-85
2022/01/12 07:49:37;;;;;;;179.98;38.05;;;;;;;;;;4975348;28;20133;-84
2022/01/12 07:52:05;;;;;;;183.13;39.38;;;;;;;;;;4992767;28;20049;-86
2022/01/12 07:54:33;;;;;;;206.07;39.28;;;;;;;;;;4979584;28;20491;-85
2022/01/12 07:57:00;;;;;;;165.50;34.65;;;;;;;;;;4982197;28;20080;-85
2022/01/12 07:59:27;;;;;;;181.90;38.15;;;;;;;;;;4992473;28;20086;-85
2022/01/12 08:01:54;;;;;;;199.13;35.65;;;;;;;;;;4996444;28;20123;-85
2022/01/12 08:04:21;;;;;;;186.82;37.70;;;;;;;;;;5012447;28;20053;-85
2022/01/12 08:06:49;;;;;;;176.60;35.13;;;;;;;;;;5009232;28;20143;-85
2022/01/12 08:09:16;;;;;;;194.57;36.95;;;;;;;;;;5006885;28;20487;-85
2022/01/12 08:11:44;;;;;;;181.85;36.15;;;;;;;;;;5011736;28;20129;-86
2022/01/12 08:14:11;;;;;;;188.60;36.58;;;;;;;;;;5012133;28;20534;-85
2022/01/12 08:16:38;;;;;;;196.77;36.45;;;;;;;;;;4992509;28;20092;-85
2022/01/12 08:19:05;;;;;;;210.30;36.58;;;;;;;;;;4958583;28;20629;-85
2022/01/12 08:21:32;;;;;;;215.13;36.83;;;;;;;;;;4988114;28;20559;-85
2022/01/12 08:24:01;;;;;;;220.90;36.42;;;;;;;;;;4999518;28;20120;-85
2022/01/12 08:26:33;;;;;;;262.92;39.67;;;;;;;;;;4994624;28;20490;-84
2022/01/12 08:29:00;;;;;;;225.05;37.78;;;;;;;;;;4992092;28;20101;-85
2022/01/12 08:31:27;;;;;;;231.13;36.85;;;;;;;;;;4999843;28;20128;-84
2022/01/12 08:33:54;;;;;;;243.88;41.00;;;;;;;;;;4992081;28;20058;-84
2022/01/12 08:36:21;;;;;;;221.15;37.33;;;;;;;;;;4998469;28;20137;-85
2022/01/12 08:38:49;;;;;;;213.02;38.40;;;;;;;;;;4985268;28;20048;-85
2022/01/12 08:41:16;;;;;;;220.95;38.60;;;;;;;;;;4976069;28;20145;-85
2022/01/12 08:43:43;;;;;;;278.75;38.60;;;;;;;;;;4988929;28;20515;-85
2022/01/12 08:46:10;;;;;;;303.23;43.22;;;;;;;;;;4991336;28;20046;-85
2022/01/12 08:48:38;;;;;;;256.83;39.28;;;;;;;;;;4991421;28;20053;-85
2022/01/12 08:51:07;;;;;;;217.45;37.50;;;;;;;;;;4991446;28;20094;-85
2022/01/12 08:53:34;;;;;;;261.90;39.63;;;;;;;;;;4975101;28;20125;-84
2022/01/12 08:56:03;;;;;;;313.30;42.35;;;;;;;;;;4981506;28;20089;-85
2022/01/12 08:58:30;;;;;;;278.73;42.40;;;;;;;;;;4991045;28;20584;-85
2022/01/12 09:01:03;;;;;;;297.83;43.72;;;;;;;;;;4999193;28;20404;-84
2022/01/12 09:03:31;;;;;;;259.30;43.10;;;;;;;;;;4982643;28;20097;-84
2022/01/12 09:05:58;;;;;;;255.98;38.38;;;;;;;;;;5007245;28;20076;-83
2022/01/12 09:08:25;;;;;;;272.35;41.10;;;;;;;;;;4985417;28;20185;-84
2022/01/12 09:10:52;;;;;;;257.15;39.22;;;;;;;;;;4991174;28;20452;-84
2022/01/12 09:13:19;;;;;;;256.00;40.05;;;;;;;;;;4991400;28;20082;-84
2022/01/12 09:15:47;;;;;;;271.00;41.78;;;;;;;;;;4974246;28;20086;-84
2022/01/12 09:18:15;;;;;;;251.82;41.38;;;;;;;;;;4990983;28;20049;-84
2022/01/12 09:20:42;;;;;;;266.65;39.75;;;;;;;;;;4991233;28;20141;-84
2022/01/12 09:23:09;;;;;;;326.77;40.20;;;;;;;;;;4991388;28;20129;-85
2022/01/12 09:25:40;;;;;;;255.43;38.67;;;;;;;;;;4973975;28;20138;-84
2022/01/12 09:28:08;;;;;;;301.00;41.70;;;;;;;;;;4990958;28;20054;-84
2022/01/12 09:30:36;;;;;;;271.02;38.47;;;;;;;;;;4988159;28;20088;-85
2022/01/12 09:33:03;;;;;;;250.73;41.35;;;;;;;;;;4998522;28;20750;-85
2022/01/12 09:35:37;;;;;;;244.45;37.75;;;;;;;;;;5003777;28;20050;-85
2022/01/12 09:38:05;;;;;;;261.40;40.22;;;;;;;;;;5004061;28;20077;-85
2022/01/12 09:40:32;;;;;;;248.70;38.65;;;;;;;;;;4977364;28;20133;-85
2022/01/12 09:43:03;;;;;;;250.00;36.85;;;;;;;;;;4994420;28;20146;-84
2022/01/12 09:45:31;;;;;;;228.95;37.95;;;;;;;;;;4994671;28;20039;-86
2022/01/12 09:47:59;;;;;;;276.30;39.20;;;;;;;;;;4995161;28;20132;-85
2022/01/12 09:50:26;;;;;;;243.60;41.72;;;;;;;;;;4994827;28;20137;-85
2022/01/12 09:52:53;;;;;;;212.13;37.22;;;;;;;;;;4994470;28;20499;-85
2022/01/12 09:55:20;;;;;;;203.60;35.72;;;;;;;;;;4994897;28;20755;-85
2022/01/12 09:57:48;;;;;;;170.75;31.00;;;;;;;;;;4976655;28;20133;-86
2022/01/12 10:00:23;;;;;;;181.40;31.73;;;;;;;;;;4997469;28;20105;-86
2022/01/12 10:02:50;;;;;;;146.85;28.20;;;;;;;;;;5004351;28;20129;-86
2022/01/12 10:05:17;;;;;;;143.00;28.48;;;;;;;;;;5012888;28;20046;-85
2022/01/12 10:07:45;;;;;;;107.65;24.25;;;;;;;;;;4989568;28;20136;-86
2022/01/12 10:10:17;;;;;;;100.30;22.30;;;;;;;;;;4992931;28;20082;-86
2022/01/12 10:12:58;;;;;;;111.85;23.67;;;;;;;;;;4976058;28;20500;-86
2022/01/12 10:15:29;;;;;;;87.20;23.17;;;;;;;;;;4977167;28;20054;-84
2022/01/12 10:18:01;;;;;;;78.22;19.52;;;;;;;;;;4977023;28;20712;-85
2022/01/12 10:20:28;;;;;;;85.00;20.70;;;;;;;;;;4976112;28;20130;-84
2022/01/12 10:22:59;;;;;;;94.03;22.92;;;;;;;;;;4981427;28;20152;-84
2022/01/12 10:25:27;;;;;;;83.72;22.75;;;;;;;;;;4974804;28;20081;-84
2022/01/12 10:27:55;;;;;;;95.97;23.10;;;;;;;;;;4984077;28;20078;-84
2022/01/12 10:30:23;;;;;;;92.68;22.63;;;;;;;;;;4993567;28;20137;-85
2022/01/12 10:33:07;;;;;;;86.82;22.35;;;;;;;;;;4984430;28;20125;-85
2022/01/12 10:35:36;;;;;;;93.20;24.25;;;;;;;;;;5010391;28;20132;-85
2022/01/12 10:38:08;;;;;;;99.40;24.38;;;;;;;;;;5004813;28;20593;-84
2022/01/12 10:40:46;;;;;;;96.80;24.60;;;;;;;;;;4994029;28;20130;-82
2022/01/12 10:43:25;;;;;;;92.05;24.30;;;;;;;;;;4992534;28;20097;-85
2022/01/12 10:45:52;;;;;;;79.05;23.02;;;;;;;;;;4992278;28;20053;-82
2022/01/12 10:48:19;;;;;;;75.90;23.73;;;;;;;;;;4973325;28;20138;-85
2022/01/12 10:50:56;;;;;;;93.10;27.25;;;;;;;;;;4992991;28;20081;-86
2022/01/12 10:53:33;;;;;;;94.18;26.98;;;;;;;;;;4981978;28;20169;-84
2022/01/12 10:56:08;;;;;;;94.03;27.00;;;;;;;;;;5004670;28;20046;-86
2022/01/12 10:58:41;;;;;;;82.95;27.48;;;;;;;;;;4968159;28;20047;-85
2022/01/12 11:01:10;;;;;;;82.07;25.75;;;;;;;;;;4993992;28;20042;-83
2022/01/12 11:03:38;;;;;;;90.93;27.02;;;;;;;;;;4975639;28;20110;-84
2022/01/12 11:06:06;;;;;;;88.18;24.58;;;;;;;;;;4980479;28;20137;-83
2022/01/12 11:08:34;;;;;;;82.32;24.65;;;;;;;;;;4985645;28;20085;-83
2022/01/12 11:11:01;;;;;;;85.85;25.63;;;;;;;;;;5000924;28;20129;-85
2022/01/12 11:13:29;;;;;;;94.10;27.10;;;;;;;;;;4992722;28;20636;-85
2022/01/12 11:15:57;;;;;;;83.25;25.80;;;;;;;;;;4991874;28;20100;-85
2022/01/12 11:18:28;;;;;;;85.95;27.35;;;;;;;;;;4979167;28;20047;-86
2022/01/12 11:21:06;;;;;;;83.25;26.90;;;;;;;;;;4975455;28;20082;-85
2022/01/12 11:23:35;;;;;;;83.40;26.75;;;;;;;;;;4992653;28;20050;-84
2022/01/12 11:26:11;;;;;;;76.47;25.13;;;;;;;;;;4983364;28;20132;-86
2022/01/12 11:28:39;;;;;;;71.57;24.10;;;;;;;;;;4983791;28;20141;-86
2022/01/12 11:31:08;;;;;;;69.10;23.80;;;;;;;;;;4974838;28;20050;-86
2022/01/12 11:33:49;;;;;;;66.07;21.48;;;;;;;;;;4975180;28;20133;-89
2022/01/12 11:36:22;;;;;;;59.92;22.17;;;;;;;;;;4999948;28;20084;-91
2022/01/12 11:38:59;;;;;;;61.25;21.77;;;;;;;;;;5001311;28;20103;-86
2022/01/12 11:41:28;;;;;;;59.70;22.77;;;;;;;;;;4983102;28;20137;-85
2022/01/12 11:44:03;;;;;;;56.35;20.33;;;;;;;;;;4999290;28;20046;-86
2022/01/12 11:46:49;;;;;;;59.30;20.50;;;;;;;;;;4991909;28;20046;-86
2022/01/12 11:49:26;;;;;;;53.22;18.33;;;;;;;;;;4987452;28;20050;-88
2022/01/12 11:51:54;;;;;;;50.75;20.10;;;;;;;;;;4993103;28;20088;-88
2022/01/12 11:54:22;;;;;;;52.92;19.38;;;;;;;;;;4998342;28;20052;-86
2022/01/12 11:56:56;;;;;;;45.63;18.25;;;;;;;;;;4990052;28;20141;-85
2022/01/12 11:59:26;;;;;;;45.03;17.87;;;;;;;;;;4994396;28;20068;-86
2022/01/12 12:02:07;;;;;;;44.17;18.05;;;;;;;;;;4990285;28;20290;-86
2022/01/12 12:04:35;;;;;;;42.78;18.67;;;;;;;;;;4998578;28;20109;-85
2022/01/12 12:07:12;;;;;;;46.97;19.23;;;;;;;;;;5004686;28;20049;-86
2022/01/12 12:09:57;;;;;;;51.70;19.02;;;;;;;;;;4994534;28;20062;-86
2022/01/12 12:12:28;;;;;;;43.28;18.58;;;;;;;;;;4991992;28;20046;-85
2022/01/12 12:15:00;;;;;;;48.85;18.30;;;;;;;;;;4991999;28;20132;-86
2022/01/12 12:17:41;;;;;;;;;;;;;;;;;;4915286;29;20044;-87
2022/01/12 12:20:11;;;;;;;56.15;18.40;;;;;;;;;;4937592;28;20002;-86
2022/01/12 12:22:40;;;;;;;51.67;19.05;;;;;;;;;;4915573;29;20692;-85
2022/01/12 12:25:09;;;;;;;49.70;18.40;;;;;;;;;;4934370;29;20136;-84
2022/01/12 12:31:06;;;;;;;57.88;18.40;;;;;;;;;;4921908;29;20646;-84
2022/01/12 12:33:35;;;;;;;48.33;18.83;;;;;;;;;;4915653;29;20418;-83
2022/01/12 12:36:07;;;;;;;52.00;18.65;;;;;;;;;;4935120;29;20074;-84
2022/01/12 12:38:34;;;;;;;49.35;18.08;;;;;;;;;;4938966;29;20114;-84
2022/01/12 12:41:02;;;;;;;53.60;19.15;;;;;;;;;;4915301;29;20076;-84
2022/01/12 12:43:35;;;;;;;51.28;17.98;;;;;;;;;;4930756;29;20149;-85
2022/01/12 12:46:07;;;;;;;60.92;19.77;;;;;;;;;;4931207;29;20487;-86
2022/01/12 12:48:35;;;;;;;65.95;20.00;;;;;;;;;;4930726;29;20047;-87
2022/01/12 12:51:08;;;;;;;64.22;21.20;;;;;;;;;;4929611;29;20131;-87
2022/01/12 12:53:36;;;;;;;52.45;19.08;;;;;;;;;;4914712;29;20110;-86
2022/01/12 12:56:04;;;;;;;53.35;19.77;;;;;;;;;;4980937;28;20085;-87
2022/01/12 12:58:33;;;;;;;59.60;20.10;;;;;;;;;;5010782;28;20054;-88
2022/01/12 13:01:07;;;;;;;56.60;19.42;;;;;;;;;;4983004;28;20631;-87
2022/01/12 13:03:35;;;;;;;51.80;19.77;;;;;;;;;;4989414;28;20053;-86
2022/01/12 13:06:03;;;;;;;51.20;20.52;;;;;;;;;;4995387;28;20084;-87
2022/01/12 13:08:30;;;;;;;49.50;18.67;;;;;;;;;;5002847;28;20743;-86
2022/01/12 13:11:05;;;;;;;54.33;19.02;;;;;;;;;;4993293;28;20073;-86
2022/01/12 13:13:32;;;;;;;54.30;20.25;;;;;;;;;;4974638;28;20133;-86
2022/01/12 13:15:59;;;;;;;60.72;21.00;;;;;;;;;;4990654;28;20085;-88
2022/01/12 13:18:27;;;;;;;70.93;21.75;;;;;;;;;;4992142;28;20054;-86
2022/01/12 13:21:12;;;;;;;62.33;21.08;;;;;;;;;;4991551;28;20054;-85
2022/01/12 13:23:39;;;;;;;52.60;18.55;;;;;;;;;;4961037;28;20046;-86
2022/01/12 13:26:07;;;;;;;61.20;18.42;;;;;;;;;;5011062;28;20050;-86
2022/01/12 13:28:35;;;;;;;59.13;18.60;;;;;;;;;;4992886;28;20454;-86
2022/01/12 13:31:07;;;;;;;76.55;19.75;;;;;;;;;;4990776;28;20831;-86
2022/01/12 13:33:36;;;;;;;56.88;17.85;;;;;;;;;;4972353;28;20125;-85
2022/01/12 13:36:12;;;;;;;62.97;18.05;;;;;;;;;;4991168;28;20518;-86
2022/01/12 13:38:41;;;;;;;59.17;17.48;;;;;;;;;;4998883;28;20097;-85
2022/01/12 13:41:09;;;;;;;54.15;17.08;;;;;;;;;;4990776;28;20086;-85
2022/01/12 13:43:37;;;;;;;56.65;18.30;;;;;;;;;;4975261;28;20142;-86
2022/01/12 13:46:12;;;;;;;61.60;16.98;;;;;;;;;;4973583;28;20058;-86
2022/01/12 13:49:06;;;;;;;58.67;16.93;;;;;;;;;;4975389;28;20122;-85
2022/01/12 13:51:37;;;;;;;62.90;18.60;;;;;;;;;;4990899;28;20054;-86
2022/01/12 13:54:06;;;;;;;46.97;17.33;;;;;;;;;;4995107;28;20054;-83
2022/01/12 13:56:37;;;;;;;56.55;16.83;;;;;;;;;;5002532;28;20136;-82
2022/01/12 13:59:05;;;;;;;51.78;17.05;;;;;;;;;;4992445;28;20208;-83
2022/01/12 14:01:33;;;;;;;63.53;17.15;;;;;;;;;;4989689;28;20520;-83
2022/01/12 14:04:17;;;;;;;58.42;16.98;;;;;;;;;;4996809;28;20053;-86
2022/01/12 14:06:46;;;;;;;60.85;17.58;;;;;;;;;;4999000;28;20742;-86
2022/01/12 14:12:12;;;;;;;58.83;16.23;;;;;;;;;;4983942;28;20153;-85
2022/01/12 14:14:46;;;;;;;124.68;24.27;;;;;;;;;;4982125;28;20077;-86
2022/01/12 14:17:24;;;;;;;70.95;19.17;;;;;;;;;;4973422;28;20456;-83
2022/01/12 14:20:00;;;;;;;60.90;17.20;;;;;;;;;;4973382;28;20130;-85
2022/01/12 14:22:49;;;;;;;54.10;15.63;;;;;;;;;;4974733;28;20647;-85
2022/01/12 14:25:18;;;;;;;57.22;15.25;;;;;;;;;;4996528;28;20085;-85
2022/01/12 14:27:47;;;;;;;48.08;14.73;;;;;;;;;;4994132;28;20137;-84
2022/01/12 14:30:16;;;;;;;62.83;15.43;;;;;;;;;;4981243;28;20129;-84
2022/01/12 14:32:44;;;;;;;59.25;13.98;;;;;;;;;;4978861;28;20054;-85
2022/01/12 14:35:12;;;;;;;43.45;13.13;;;;;;;;;;4976054;28;20145;-85
2022/01/12 14:37:39;;;;;;;67.65;15.15;;;;;;;;;;4987033;28;20137;-85
2022/01/12 14:40:07;;;;;;;49.40;13.73;;;;;;;;;;4992264;28;20129;-84
2022/01/12 14:42:44;;;;;;;55.92;13.77;;;;;;;;;;4975905;28;20086;-84
2022/01/12 14:45:18;;;;;;;47.25;13.80;;;;;;;;;;4993409;28;20166;-84
2022/01/12 14:47:46;;;;;;;55.03;15.10;;;;;;;;;;4993205;28;20047;-84
2022/01/12 14:50:15;;;;;;;60.00;14.60;;;;;;;;;;4979233;28;20652;-82
2022/01/12 14:52:48;;;;;;;59.65;15.75;;;;;;;;;;5009920;28;20178;-83
2022/01/12 14:55:34;;;;;;;62.15;16.70;;;;;;;;;;4981129;28;20065;-85
2022/01/12 14:58:01;;;;;;;50.72;13.65;;;;;;;;;;4996766;28;20085;-84
2022/01/12 15:00:34;;;;;;;65.53;15.13;;;;;;;;;;4975782;28;20052;-85
2022/01/12 15:03:04;;;;;;;47.97;14.57;;;;;;;;;;4996569;28;20153;-85
2022/01/12 15:05:32;;;;;;;52.60;13.65;;;;;;;;;;4980662;28;20053;-85
2022/01/12 15:07:59;;;;;;;55.17;13.70;;;;;;;;;;4993433;28;20085;-85
2022/01/12 15:10:27;;;;;;;55.17;13.32;;;;;;;;;;4975129;28;20531;-84
2022/01/12 15:13:05;;;;;;;50.13;12.52;;;;;;;;;;4976354;28;20058;-85
2022/01/12 15:15:33;;;;;;;54.92;14.05;;;;;;;;;;4994270;28;20150;-84
2022/01/12 15:18:00;;;;;;;57.13;14.40;;;;;;;;;;4978047;28;20054;-86
2022/01/12 15:20:28;;;;;;;64.38;13.63;;;;;;;;;;4979846;28;20078;-85
2022/01/12 15:22:55;;;;;;;50.30;13.15;;;;;;;;;;4993624;28;20750;-84
2022/01/12 15:25:24;;;;;;;47.42;13.15;;;;;;;;;;5001454;28;20767;-85
2022/01/12 15:27:51;;;;;;;62.58;14.75;;;;;;;;;;4996510;28;20064;-84
2022/01/12 15:30:19;;;;;;;52.03;13.63;;;;;;;;;;5012652;28;20088;-86
2022/01/12 15:32:47;;;;;;;57.42;13.45;;;;;;;;;;4989422;28;20093;-85
2022/01/12 15:35:19;;;;;;;59.53;14.85;;;;;;;;;;4993828;28;20089;-84
2022/01/12 15:37:46;;;;;;;70.72;14.25;;;;;;;;;;4987314;28;20081;-84
2022/01/12 15:40:15;;;;;;;54.05;13.02;;;;;;;;;;5013058;28;20153;-85
2022/01/12 15:42:43;;;;;;;61.22;15.52;;;;;;;;;;4995266;28;20096;-84
2022/01/12 15:45:10;;;;;;;50.58;13.85;;;;;;;;;;5012747;28;20520;-86
2022/01/12 15:47:37;;;;;;;57.92;13.93;;;;;;;;;;5012416;28;20758;-84
2022/01/12 15:50:05;;;;;;;52.78;13.60;;;;;;;;;;5012480;28;20097;-83